Time;durP1;ratioP1;P1;durP2;ratioP2;P2;SDS_P1;SDS_P2;PMS_P1;PMS_P2;Temp;Humidity;BMP_temperature;BMP_pressure;BME280_temperature;BME280_humidity;BME280_pressure;Samples;Min_cycle;Max_cycle;Signal;HPM_P1;HPM_P2
2022/07/07 00:00:55;;;;;;;48.42;45.83;;;;;;;25.24;39.07;101954.44;4954022;29;20055;-76
2022/07/07 00:03:21;;;;;;;46.42;44.13;;;;;;;25.22;38.85;101951.19;4955365;28;20432;-77
2022/07/07 00:05:46;;;;;;;50.13;47.60;;;;;;;25.20;39.11;101952.59;4954755;28;20377;-76
2022/07/07 00:08:12;;;;;;;51.53;48.65;;;;;;;25.20;38.69;101958.13;4954687;29;20035;-77
2022/07/07 00:10:37;;;;;;;48.33;45.53;;;;;;;25.16;38.65;101946.91;4954920;28;20499;-77
2022/07/07 00:13:03;;;;;;;47.83;45.13;;;;;;;25.14;39.11;101949.13;4969973;28;20057;-77
2022/07/07 00:15:29;;;;;;;44.92;42.72;;;;;;;25.14;39.04;101959.38;4954810;28;20035;-77
2022/07/07 00:17:54;;;;;;;49.08;46.47;;;;;;;25.11;39.01;101960.00;4958200;28;20039;-76
2022/07/07 00:20:19;;;;;;;48.45;46.00;;;;;;;25.08;39.11;101955.91;4959437;28;20046;-76
2022/07/07 00:22:45;;;;;;;47.28;44.58;;;;;;;25.07;39.15;101953.44;4973455;28;20184;-77
2022/07/07 00:25:10;;;;;;;49.17;46.47;;;;;;;25.05;39.39;101946.28;4958761;28;20031;-77
2022/07/07 00:27:37;;;;;;;47.67;45.20;;;;;;;25.04;39.29;101938.31;4958799;28;20035;-76
2022/07/07 00:30:04;;;;;;;48.50;45.75;;;;;;;25.03;39.21;101928.38;4958632;28;20038;-75
2022/07/07 00:32:29;;;;;;;48.30;45.67;;;;;;;25.00;39.46;101924.31;4958679;28;20039;-76
2022/07/07 00:34:54;;;;;;;46.80;44.30;;;;;;;24.99;39.64;101932.91;4957687;29;20035;-77
2022/07/07 00:37:20;;;;;;;45.30;42.90;;;;;;;24.96;39.25;101930.75;4958574;28;20058;-75
2022/07/07 00:39:45;;;;;;;49.83;46.83;;;;;;;24.95;39.08;101927.19;4973342;28;20039;-76
2022/07/07 00:42:15;;;;;;;45.78;43.28;;;;;;;24.93;39.49;101923.09;4958442;28;20031;-76
2022/07/07 00:44:42;;;;;;;44.50;42.15;;;;;;;24.91;39.57;101923.41;4958486;28;20042;-77
2022/07/07 00:47:09;;;;;;;49.00;46.60;;;;;;;24.90;39.65;101921.78;4958269;28;20547;-76
2022/07/07 00:49:35;;;;;;;47.88;45.38;;;;;;;24.89;39.54;101914.59;4958969;28;20066;-76
2022/07/07 00:52:00;;;;;;;47.70;45.22;;;;;;;24.87;39.76;101904.97;4958859;28;20456;-77
2022/07/07 00:54:26;;;;;;;46.70;44.22;;;;;;;24.86;39.77;101908.88;4957619;29;20043;-76
2022/07/07 00:56:51;;;;;;;48.80;46.33;;;;;;;24.84;39.43;101895.38;4958220;28;20042;-76
2022/07/07 00:59:17;;;;;;;50.15;47.47;;;;;;;24.82;39.38;101903.16;4958282;28;20338;-77
2022/07/07 01:01:43;;;;;;;44.47;42.17;;;;;;;24.81;39.68;101901.53;4958296;28;20035;-76
2022/07/07 01:04:11;;;;;;;48.22;45.67;;;;;;;24.80;39.60;101891.59;4958113;28;20083;-77
2022/07/07 01:06:37;;;;;;;44.72;42.42;;;;;;;24.77;39.46;101884.75;4957839;28;20047;-76
2022/07/07 01:09:03;;;;;;;47.80;45.30;;;;;;;24.76;39.90;101907.16;4957608;28;20042;-78
2022/07/07 01:11:44;;;;;;;47.05;44.65;;;;;;;24.74;39.70;101901.94;4957944;28;20038;-77
2022/07/07 01:14:09;;;;;;;47.40;45.00;;;;;;;24.72;39.88;101897.84;4956696;29;20043;-76
2022/07/07 01:16:35;;;;;;;47.83;45.40;;;;;;;24.71;40.01;101901.75;4957975;28;20042;-76
2022/07/07 01:19:00;;;;;;;47.20;44.80;;;;;;;24.68;39.35;101897.66;4957900;28;20035;-76
2022/07/07 01:21:28;;;;;;;45.88;43.63;;;;;;;24.67;39.36;101890.53;4957991;28;20447;-75
2022/07/07 01:23:53;;;;;;;44.13;41.92;;;;;;;24.64;39.46;101888.34;4958378;28;20066;-73
2022/07/07 01:26:19;;;;;;;46.28;43.92;;;;;;;24.63;39.71;101891.44;4956750;29;20118;-77
2022/07/07 01:28:44;;;;;;;44.88;42.67;;;;;;;24.60;39.87;101893.69;4956879;28;20038;-76
2022/07/07 01:31:10;;;;;;;48.33;45.88;;;;;;;24.59;39.67;101894.00;4956502;29;20373;-78
2022/07/07 01:33:36;;;;;;;45.47;43.20;;;;;;;24.58;39.66;101893.19;4956400;29;20098;-78
2022/07/07 01:36:02;;;;;;;44.38;42.05;;;;;;;24.56;39.48;101887.16;4957544;28;20427;-78
2022/07/07 01:38:27;;;;;;;44.83;42.42;;;;;;;24.55;39.86;101884.72;4957670;28;20039;-78
2022/07/07 01:40:52;;;;;;;45.15;42.25;;;;;;;24.54;39.92;101883.06;4940915;28;20038;-75
2022/07/07 01:43:18;;;;;;;42.17;39.97;;;;;;;24.52;40.28;101883.38;4956281;29;20535;-78
2022/07/07 01:45:43;;;;;;;41.97;39.97;;;;;;;24.51;40.23;101878.16;4957768;28;20035;-76
2022/07/07 01:48:09;;;;;;;44.95;42.65;;;;;;;24.50;40.43;101880.09;4940268;29;20114;-77
2022/07/07 01:50:34;;;;;;;44.15;41.90;;;;;;;24.48;39.96;101874.06;4957910;28;20046;-78
2022/07/07 01:52:59;;;;;;;40.55;38.55;;;;;;;24.47;40.28;101875.22;4956428;29;20455;-77
2022/07/07 01:55:25;;;;;;;42.80;40.70;;;;;;;24.46;40.49;101876.31;4956330;29;20075;-77
2022/07/07 01:57:50;;;;;;;42.72;40.63;;;;;;;24.44;40.33;101869.44;4957535;28;20031;-77
2022/07/07 02:00:16;;;;;;;45.90;43.50;;;;;;;24.43;40.36;101859.53;4957301;28;20039;-78
2022/07/07 02:02:41;;;;;;;41.83;39.53;;;;;;;24.41;40.37;101870.88;4957300;28;20035;-77
2022/07/07 02:05:07;;;;;;;42.03;39.90;;;;;;;24.41;40.09;101877.22;4956911;28;20114;-77
2022/07/07 02:07:35;;;;;;;45.60;43.40;;;;;;;24.40;40.22;101874.78;4957918;28;20099;-78
2022/07/07 02:10:01;;;;;;;41.50;39.45;;;;;;;24.38;40.19;101861.25;4971856;28;20046;-77
2022/07/07 02:12:26;;;;;;;45.63;43.30;;;;;;;24.37;40.31;101864.34;4955839;29;20035;-79
2022/07/07 02:14:52;;;;;;;42.25;40.05;;;;;;;24.35;40.55;101870.19;4956911;28;20070;-78
2022/07/07 02:17:17;;;;;;;42.63;40.33;;;;;;;24.34;40.46;101865.78;4956815;28;20063;-77
2022/07/07 02:19:43;;;;;;;40.88;38.58;;;;;;;24.32;40.64;101858.94;4971719;28;20054;-76
2022/07/07 02:22:09;;;;;;;41.05;39.03;;;;;;;24.32;40.13;101862.50;4956495;28;20471;-78
2022/07/07 02:24:34;;;;;;;43.63;41.53;;;;;;;24.30;40.46;101855.66;4956534;28;20490;-78
2022/07/07 02:26:59;;;;;;;41.30;39.20;;;;;;;24.28;40.65;101853.19;4956512;28;20046;-78
2022/07/07 02:29:25;;;;;;;40.60;38.50;;;;;;;24.27;40.54;101848.81;4956578;28;20508;-78
2022/07/07 02:31:50;;;;;;;41.92;39.72;;;;;;;24.27;40.37;101853.53;4956385;28;20024;-78
2022/07/07 02:34:16;;;;;;;43.33;41.00;;;;;;;24.26;40.19;101846.34;4957103;28;20464;-78
2022/07/07 02:36:41;;;;;;;42.70;39.95;;;;;;;24.24;40.70;101843.91;4956539;28;20049;-78
2022/07/07 02:39:06;;;;;;;41.25;39.22;;;;;;;24.23;40.68;101842.28;4971058;28;20400;-77
2022/07/07 02:41:32;;;;;;;41.47;39.42;;;;;;;24.22;40.49;101842.56;4956480;28;20467;-77
2022/07/07 02:43:57;;;;;;;41.60;39.42;;;;;;;24.18;40.15;101845.94;4956719;28;20055;-78
2022/07/07 02:46:23;;;;;;;46.55;43.88;;;;;;;24.17;40.57;101855.38;4956239;28;20487;-75
2022/07/07 02:48:48;;;;;;;41.25;39.25;;;;;;;24.16;41.03;101862.00;4955155;29;20506;-77
2022/07/07 02:51:14;;;;;;;42.97;40.78;;;;;;;24.15;40.37;101868.66;4956477;28;20032;-78
2022/07/07 02:53:39;;;;;;;42.40;40.30;;;;;;;24.14;40.53;101871.72;4956466;28;20035;-77
2022/07/07 02:56:05;;;;;;;43.20;41.10;;;;;;;24.13;40.80;101870.09;4956128;28;20035;-79
2022/07/07 02:58:30;;;;;;;42.10;39.95;;;;;;;24.10;41.04;101877.03;4956345;28;20102;-77
2022/07/07 03:00:56;;;;;;;42.00;40.00;;;;;;;24.08;40.76;101875.72;4956284;28;20027;-76
2022/07/07 03:03:21;;;;;;;41.78;39.67;;;;;;;24.06;40.89;101866.91;4954848;29;20464;-76
2022/07/07 03:05:47;;;;;;;40.35;38.45;;;;;;;24.04;40.76;101875.53;4955885;28;20163;-77
2022/07/07 03:08:13;;;;;;;42.00;39.85;;;;;;;24.02;41.10;101880.53;4955092;29;20435;-77
2022/07/07 03:10:39;;;;;;;39.92;38.03;;;;;;;24.00;41.08;101882.75;4970757;28;20489;-77
2022/07/07 03:13:04;;;;;;;39.47;37.55;;;;;;;23.98;41.24;101891.34;4955961;28;20066;-76
2022/07/07 03:15:30;;;;;;;39.53;37.63;;;;;;;23.95;41.26;101886.44;4955553;28;20062;-76
2022/07/07 03:17:56;;;;;;;39.63;37.72;;;;;;;23.92;41.63;101891.75;4954905;29;20027;-75
2022/07/07 03:20:22;;;;;;;43.70;41.40;;;;;;;23.91;42.09;101895.63;4955942;28;20077;-76
2022/07/07 03:22:47;;;;;;;38.90;36.90;;;;;;;23.90;41.96;101892.06;4955728;28;20046;-75
2022/07/07 03:25:13;;;;;;;40.10;38.15;;;;;;;23.89;41.78;101889.59;4956122;28;20035;-75
2022/07/07 03:27:39;;;;;;;39.35;37.55;;;;;;;23.86;41.73;101888.25;4955379;28;20042;-75
2022/07/07 03:30:06;;;;;;;39.65;37.65;;;;;;;23.85;41.89;101880.31;4955899;28;20035;-76
2022/07/07 03:32:32;;;;;;;41.60;39.35;;;;;;;23.84;41.82;101884.16;4955497;28;20031;-76
2022/07/07 03:34:58;;;;;;;40.10;37.90;;;;;;;23.84;42.26;101884.16;4955835;28;20122;-75
2022/07/07 03:37:24;;;;;;;42.22;40.13;;;;;;;23.84;42.08;101884.16;4955396;28;20114;-76
2022/07/07 03:39:49;;;;;;;41.00;38.70;;;;;;;23.83;41.54;101877.84;4955512;28;20063;-76
2022/07/07 03:42:14;;;;;;;39.83;37.90;;;;;;;23.81;41.59;101866.28;4955182;28;20098;-76
2022/07/07 03:44:40;;;;;;;39.65;37.60;;;;;;;23.82;42.09;101869.88;4955217;28;20039;-76
2022/07/07 03:47:05;;;;;;;40.50;38.53;;;;;;;23.81;42.12;101869.03;4955788;28;20032;-76
2022/07/07 03:49:31;;;;;;;43.42;41.13;;;;;;;23.80;41.77;101870.19;4955094;28;20043;-77
2022/07/07 03:51:57;;;;;;;40.70;38.72;;;;;;;23.78;41.80;101875.19;4954916;28;20042;-75
2022/07/07 03:54:22;;;;;;;39.00;37.00;;;;;;;23.77;41.68;101873.56;4970076;28;20043;-76
2022/07/07 03:56:48;;;;;;;40.83;38.92;;;;;;;23.76;42.09;101877.41;4954910;28;20114;-76
2022/07/07 03:59:13;;;;;;;39.72;37.83;;;;;;;23.73;42.13;101878.84;4955328;28;20033;-76
2022/07/07 04:01:44;;;;;;;42.50;40.05;;;;;;;23.72;41.74;101866.19;4954983;28;20039;-75
2022/07/07 04:04:10;;;;;;;40.13;38.10;;;;;;;23.71;42.11;101869.22;4970151;28;20460;-76
2022/07/07 04:06:35;;;;;;;40.15;38.15;;;;;;;23.70;42.00;101873.91;4954887;28;20057;-75
2022/07/07 04:09:01;;;;;;;40.40;38.10;;;;;;;23.68;41.91;101862.34;4955268;28;20028;-76
2022/07/07 04:11:26;;;;;;;41.22;39.03;;;;;;;23.67;42.41;101855.22;4954843;28;20075;-76
2022/07/07 04:13:52;;;;;;;41.58;39.42;;;;;;;23.67;41.99;101862.69;4955443;28;20069;-75
2022/07/07 04:16:17;;;;;;;40.47;38.53;;;;;;;23.66;42.37;101859.09;4954596;29;20055;-72
2022/07/07 04:18:42;;;;;;;40.55;38.50;;;;;;;23.64;41.97;101863.28;4955407;28;20027;-75
2022/07/07 04:21:08;;;;;;;38.33;36.42;;;;;;;23.63;42.05;101856.13;4953939;29;20038;-74
2022/07/07 04:23:33;;;;;;;40.90;38.88;;;;;;;23.63;42.00;101869.91;4955071;28;20031;-75
2022/07/07 04:25:58;;;;;;;38.40;36.60;;;;;;;23.62;42.11;101876.56;4954255;29;20538;-75
2022/07/07 04:28:25;;;;;;;40.38;38.38;;;;;;;23.60;42.23;101884.31;4955026;28;20072;-75
2022/07/07 04:30:50;;;;;;;37.97;36.17;;;;;;;23.54;42.13;101889.13;4955534;28;20472;-75
2022/07/07 04:33:15;;;;;;;38.75;36.88;;;;;;;23.51;42.37;101881.41;4954774;28;20063;-75
2022/07/07 04:35:41;;;;;;;37.40;35.60;;;;;;;23.45;42.39;101883.47;4970588;28;20412;-75
2022/07/07 04:38:06;;;;;;;41.25;39.30;;;;;;;23.42;42.33;101886.81;4969827;28;20027;-76
2022/07/07 04:40:31;;;;;;;41.53;39.53;;;;;;;23.40;42.72;101902.84;4954367;29;20036;-75
2022/07/07 04:42:57;;;;;;;38.35;36.25;;;;;;;23.39;42.79;101898.47;4970675;28;20031;-76
2022/07/07 04:45:22;;;;;;;39.17;37.28;;;;;;;23.40;42.46;101893.75;4953911;29;20036;-74
2022/07/07 04:47:48;;;;;;;41.35;39.35;;;;;;;23.39;42.47;101898.47;4955002;28;20034;-76
2022/07/07 04:50:13;;;;;;;39.25;37.35;;;;;;;23.39;43.03;101908.69;4955278;28;20388;-75
2022/07/07 04:52:39;;;;;;;40.97;38.97;;;;;;;23.39;42.86;101903.16;4955264;28;20030;-75
2022/07/07 04:55:06;;;;;;;39.55;37.65;;;;;;;23.38;42.81;101898.75;4955400;28;20047;-76
2022/07/07 04:57:32;;;;;;;39.80;37.65;;;;;;;23.36;43.22;101909.25;4955652;28;20035;-77
2022/07/07 04:59:57;;;;;;;39.78;37.83;;;;;;;23.36;42.82;101910.09;4969861;28;20031;-77
2022/07/07 05:02:23;;;;;;;37.67;35.78;;;;;;;23.36;43.10;101909.25;4955131;28;20039;-77
2022/07/07 05:04:49;;;;;;;38.17;36.35;;;;;;;23.33;42.77;101911.53;4957086;28;20482;-74
2022/07/07 05:07:15;;;;;;;37.97;36.17;;;;;;;23.32;42.90;101907.09;4958696;28;20055;-76
2022/07/07 05:09:40;;;;;;;40.30;37.97;;;;;;;23.30;42.83;101912.09;4956431;28;20122;-75
2022/07/07 05:12:06;;;;;;;39.05;37.25;;;;;;;23.26;42.77;101913.84;4958389;28;20122;-75
2022/07/07 05:14:31;;;;;;;40.10;38.20;;;;;;;23.26;42.91;101919.34;4957510;28;20113;-75
2022/07/07 05:16:57;;;;;;;38.20;36.30;;;;;;;23.25;42.56;101916.88;4958117;28;20118;-75
2022/07/07 05:19:22;;;;;;;39.38;37.35;;;;;;;23.23;42.63;101927.38;4957888;28;20057;-75
2022/07/07 05:21:49;;;;;;;40.17;38.08;;;;;;;23.22;42.77;101923.81;4957714;28;20032;-75
2022/07/07 05:24:14;;;;;;;39.63;37.72;;;;;;;23.21;43.00;101932.38;4972964;28;20031;-76
2022/07/07 05:26:39;;;;;;;40.97;38.95;;;;;;;23.18;43.26;101931.03;4956293;29;20039;-75
2022/07/07 05:29:05;;;;;;;38.15;36.15;;;;;;;23.17;43.33;101937.69;4957666;28;20464;-76
2022/07/07 05:31:30;;;;;;;39.13;37.28;;;;;;;23.16;43.41;101936.06;4957673;28;20042;-74
2022/07/07 05:33:56;;;;;;;38.53;36.70;;;;;;;23.13;42.93;101933.88;4957437;28;20102;-76
2022/07/07 05:36:21;;;;;;;39.05;37.15;;;;;;;23.12;42.96;101943.28;4972526;28;20032;-73
2022/07/07 05:38:46;;;;;;;39.80;37.53;;;;;;;23.10;43.05;101943.56;4956352;29;20043;-76
2022/07/07 05:41:12;;;;;;;39.45;37.45;;;;;;;23.09;43.30;101950.19;4972334;28;20039;-76
2022/07/07 05:43:37;;;;;;;38.65;36.70;;;;;;;23.06;43.72;101948.03;4973043;28;20031;-77
2022/07/07 05:46:03;;;;;;;38.90;36.58;;;;;;;23.06;43.15;101952.75;4956502;29;20062;-76
2022/07/07 05:48:28;;;;;;;38.75;36.95;;;;;;;23.05;43.26;101959.34;4957180;28;20031;-75
2022/07/07 05:50:54;;;;;;;39.33;37.13;;;;;;;23.04;43.17;101966.00;4972122;28;20512;-75
2022/07/07 05:53:20;;;;;;;37.42;35.53;;;;;;;23.03;43.20;101967.09;4972325;28;20031;-77
2022/07/07 05:55:45;;;;;;;39.05;37.13;;;;;;;23.02;43.02;101984.75;4955857;29;20043;-77
2022/07/07 05:58:12;;;;;;;37.13;35.35;;;;;;;22.98;43.07;101981.78;4957475;28;20035;-76
2022/07/07 06:00:37;;;;;;;37.95;35.95;;;;;;;22.96;43.56;101986.75;4956973;28;20361;-76
2022/07/07 06:03:03;;;;;;;38.22;36.22;;;;;;;22.95;43.77;102000.81;4957481;28;20063;-77
2022/07/07 06:05:28;;;;;;;38.42;36.53;;;;;;;22.94;43.44;102005.50;4957149;28;20066;-78
2022/07/07 06:07:53;;;;;;;39.58;37.45;;;;;;;22.93;43.51;102009.38;4955638;29;20051;-78
2022/07/07 06:10:19;;;;;;;37.42;35.42;;;;;;;22.91;43.30;102017.13;4957030;28;20138;-78
2022/07/07 06:12:44;;;;;;;38.90;36.67;;;;;;;22.89;43.61;101998.09;4956582;28;20027;-78
2022/07/07 06:15:10;;;;;;;40.60;37.50;;;;;;;22.87;43.79;102008.59;4955282;28;20031;-77
2022/07/07 06:17:35;;;;;;;37.83;35.72;;;;;;;22.87;43.74;102016.88;4956880;28;20093;-77
2022/07/07 06:20:02;;;;;;;36.85;35.13;;;;;;;22.85;43.20;102019.09;4956776;28;20035;-77
2022/07/07 06:22:28;;;;;;;37.83;36.03;;;;;;;22.84;43.49;102022.97;4956801;28;20043;-76
2022/07/07 06:24:54;;;;;;;39.08;36.97;;;;;;;22.84;43.31;102024.91;4955706;29;20035;-76
2022/07/07 06:27:20;;;;;;;39.35;37.03;;;;;;;22.84;43.55;102039.50;4955225;28;20042;-77
2022/07/07 06:29:46;;;;;;;39.17;37.22;;;;;;;22.83;43.20;102031.53;4956523;28;20077;-77
2022/07/07 06:32:11;;;;;;;40.80;38.28;;;;;;;22.81;43.66;102034.59;4957052;28;20033;-78
2022/07/07 06:34:37;;;;;;;37.90;35.90;;;;;;;22.79;43.35;102039.56;4956910;28;20072;-75
2022/07/07 06:37:02;;;;;;;36.30;34.50;;;;;;;22.77;43.06;102055.56;4956315;28;20027;-77
2022/07/07 06:39:28;;;;;;;36.60;34.70;;;;;;;22.76;43.13;102061.38;4955106;29;20031;-78
2022/07/07 06:41:53;;;;;;;37.33;35.53;;;;;;;22.74;43.45;102056.16;4956697;28;20042;-81
2022/07/07 06:44:19;;;;;;;37.05;35.30;;;;;;;22.73;43.63;102059.19;4958576;28;20100;-82
2022/07/07 06:46:44;;;;;;;39.45;37.22;;;;;;;22.71;43.43;102054.00;4971417;28;20465;-82
2022/07/07 06:49:09;;;;;;;36.85;35.03;;;;;;;22.71;43.49;102056.75;4956280;28;20035;-83
2022/07/07 06:51:35;;;;;;;37.78;35.70;;;;;;;22.71;43.78;102064.19;4956300;28;20377;-83
2022/07/07 06:54:00;;;;;;;37.45;35.63;;;;;;;22.71;43.70;102065.00;4955007;29;20424;-83
2022/07/07 06:56:26;;;;;;;37.00;35.17;;;;;;;22.72;43.79;102071.34;4955068;29;20365;-82
2022/07/07 06:58:51;;;;;;;39.25;37.25;;;;;;;22.69;43.70;102062.53;4955557;29;20376;-84
2022/07/07 07:01:17;;;;;;;37.70;35.85;;;;;;;22.70;43.72;102068.84;4956344;28;20027;-83
2022/07/07 07:03:43;;;;;;;38.70;36.40;;;;;;;22.69;43.58;102065.28;4955940;28;20062;-82
2022/07/07 07:06:08;;;;;;;38.88;36.95;;;;;;;22.69;43.67;102072.75;4957272;28;20076;-84
2022/07/07 07:08:34;;;;;;;37.22;35.40;;;;;;;22.69;43.09;102061.72;4959536;28;20099;-83
2022/07/07 07:10:59;;;;;;;37.75;35.75;;;;;;;22.69;43.21;102070.81;4956133;28;20039;-82
2022/07/07 07:13:25;;;;;;;36.75;35.05;;;;;;;22.68;43.05;102065.59;4957803;28;20042;-82
2022/07/07 07:15:50;;;;;;;37.38;35.33;;;;;;;22.67;43.00;102070.25;4956564;28;20396;-82
2022/07/07 07:18:16;;;;;;;36.28;34.45;;;;;;;22.65;43.05;102091.78;4956227;28;20043;-83
2022/07/07 07:20:41;;;;;;;37.17;35.38;;;;;;;22.65;43.02;102089.03;4954786;29;20491;-84
2022/07/07 07:23:06;;;;;;;36.92;34.75;;;;;;;22.64;43.50;102087.38;4956266;28;20031;-82
2022/07/07 07:25:32;;;;;;;37.05;35.05;;;;;;;22.64;43.51;102092.06;4956037;28;20114;-83
2022/07/07 07:27:58;;;;;;;37.40;35.60;;;;;;;22.63;43.55;102106.97;4955313;28;20031;-82
2022/07/07 07:30:24;;;;;;;37.88;35.97;;;;;;;22.61;43.32;102096.22;4955926;28;20491;-83
2022/07/07 07:32:49;;;;;;;38.90;36.65;;;;;;;22.62;43.78;102102.56;4955613;28;20037;-85
2022/07/07 07:35:14;;;;;;;36.10;34.17;;;;;;;22.61;43.52;102111.94;4956334;28;20475;-84
2022/07/07 07:37:41;;;;;;;38.85;36.60;;;;;;;22.60;43.63;102115.78;4958219;28;20026;-85
2022/07/07 07:40:08;;;;;;;37.10;35.10;;;;;;;22.60;43.82;102126.81;4959350;28;20039;-83
2022/07/07 07:42:35;;;;;;;36.28;34.58;;;;;;;22.59;43.35;102127.94;4958481;28;20460;-84
2022/07/07 07:45:09;;;;;;;37.80;35.90;;;;;;;22.58;43.69;102124.34;4957526;28;20035;-84
2022/07/07 07:47:35;;;;;;;36.40;34.60;;;;;;;22.56;43.41;102134.84;4956892;28;20035;-83
2022/07/07 07:50:01;;;;;;;37.17;35.30;;;;;;;22.54;43.20;102130.72;4954590;29;20539;-86
2022/07/07 07:52:26;;;;;;;35.88;34.17;;;;;;;22.54;43.32;102134.31;4955886;28;20047;-84
2022/07/07 07:54:52;;;;;;;37.45;35.65;;;;;;;22.54;43.33;102136.25;4955840;28;20035;-86
2022/07/07 07:57:18;;;;;;;36.20;34.40;;;;;;;22.54;43.87;102127.97;4954711;29;20031;-83
2022/07/07 07:59:43;;;;;;;36.50;34.35;;;;;;;22.54;43.88;102127.97;4955705;28;20089;-86
2022/07/07 08:02:09;;;;;;;37.95;35.95;;;;;;;22.53;43.92;102123.56;4955740;28;20047;-87
2022/07/07 08:04:34;;;;;;;36.08;34.17;;;;;;;22.54;44.42;102122.47;4955904;28;20105;-87
2022/07/07 08:07:00;;;;;;;39.58;37.33;;;;;;;22.54;43.62;102125.22;4955611;28;20087;-86
2022/07/07 08:09:26;;;;;;;37.03;35.13;;;;;;;22.54;44.11;102125.22;4971188;28;20070;-88
2022/07/07 08:11:52;;;;;;;37.75;35.83;;;;;;;22.56;44.08;102128.50;4955361;28;20027;-85
2022/07/07 08:14:17;;;;;;;35.55;33.85;;;;;;;22.56;44.05;102132.09;4955847;28;20042;-86
2022/07/07 08:16:43;;;;;;;37.75;35.95;;;;;;;22.55;43.75;102140.63;4955794;28;20403;-85
2022/07/07 08:19:09;;;;;;;36.65;34.85;;;;;;;22.55;44.03;102140.63;4955946;28;20027;-84
2022/07/07 08:21:35;;;;;;;35.10;33.00;;;;;;;22.53;44.25;102148.34;4956218;29;20038;-86
2022/07/07 08:24:00;;;;;;;36.45;34.65;;;;;;;22.53;44.24;102151.94;4955344;28;20033;-83
2022/07/07 08:26:26;;;;;;;36.40;34.50;;;;;;;22.54;44.49;102164.59;4955402;28;20047;-85
2022/07/07 08:28:51;;;;;;;35.53;33.83;;;;;;;22.55;44.55;102148.88;4955348;28;20114;-75
2022/07/07 08:31:17;;;;;;;35.65;33.80;;;;;;;22.55;44.63;102149.69;4955444;28;20403;-81
2022/07/07 08:33:42;;;;;;;34.85;33.25;;;;;;;22.55;44.69;102151.63;4955063;28;20114;-85
2022/07/07 08:36:08;;;;;;;36.00;34.00;;;;;;;22.53;44.62;102151.94;4970305;28;20479;-83
2022/07/07 08:38:33;;;;;;;36.70;34.85;;;;;;;22.53;44.72;102153.84;4957002;28;20031;-85
2022/07/07 08:40:59;;;;;;;36.78;34.78;;;;;;;22.53;45.04;102149.19;4958814;28;20396;-82
2022/07/07 08:43:24;;;;;;;37.00;35.20;;;;;;;22.53;45.23;102157.44;4960304;28;20027;-86
2022/07/07 08:45:50;;;;;;;36.50;34.80;;;;;;;22.54;45.13;102150.81;4958212;29;20039;-85
2022/07/07 08:48:15;;;;;;;35.05;33.35;;;;;;;22.54;45.04;102156.34;4959512;28;20035;-87
2022/07/07 08:50:40;;;;;;;36.33;34.53;;;;;;;22.56;45.00;102156.88;4959738;28;20049;-86
2022/07/07 08:53:12;;;;;;;38.10;36.05;;;;;;;22.58;44.80;102173.09;4959067;28;20032;-87
2022/07/07 08:55:41;;;;;;;37.08;35.17;;;;;;;22.57;44.52;102168.69;4959407;28;20540;-88
2022/07/07 08:58:07;;;;;;;36.80;34.83;;;;;;;22.56;44.58;102172.56;4973744;28;20035;-88
2022/07/07 09:00:32;;;;;;;36.85;35.00;;;;;;;22.55;45.09;102176.41;4958527;28;20027;-85
2022/07/07 09:02:58;;;;;;;37.03;34.38;;;;;;;22.56;45.07;102175.34;4957509;29;20062;-85
2022/07/07 09:05:27;;;;;;;36.90;35.08;;;;;;;22.56;45.27;102180.84;4958602;28;20400;-84
2022/07/07 09:07:52;;;;;;;;;;;;;;;22.57;44.91;102176.97;4959654;28;20388;-88
2022/07/07 09:10:33;;;;;;;35.00;32.78;;;;;;;22.58;44.49;102190.47;4958642;29;20355;-86
2022/07/07 09:12:59;;;;;;;34.35;32.75;;;;;;;22.58;44.47;102182.19;4958445;28;20027;-80
2022/07/07 09:15:24;;;;;;;33.72;32.13;;;;;;;22.60;44.36;102187.38;4958296;28;20039;-83
2022/07/07 09:17:50;;;;;;;35.42;33.72;;;;;;;22.62;44.82;102185.19;4958288;28;20035;-86
2022/07/07 09:20:16;;;;;;;39.05;36.97;;;;;;;22.62;44.48;102198.94;4958170;28;20112;-82
2022/07/07 09:22:52;;;;;;;34.63;32.95;;;;;;;22.61;44.53;102195.38;4957896;28;20039;-85
2022/07/07 09:25:20;;;;;;;35.10;33.20;;;;;;;22.60;44.66;102203.91;4973675;28;20357;-81
2022/07/07 09:28:00;;;;;;;36.28;34.58;;;;;;;22.59;45.04;102216.88;4958279;28;20477;-83
2022/07/07 09:30:27;;;;;;;35.95;33.95;;;;;;;22.59;45.30;102221.56;4973795;28;20078;-83
2022/07/07 09:32:52;;;;;;;37.50;35.58;;;;;;;22.59;45.16;102221.56;4958160;28;20035;-84
2022/07/07 09:38:13;;;;;;;36.38;34.55;;;;;;;22.61;44.79;102227.59;4959011;29;20123;-84
2022/07/07 09:41:03;;;;;;;37.13;35.33;;;;;;;22.63;44.89;102228.16;4973479;28;20384;-83
2022/07/07 09:43:44;;;;;;;35.55;33.85;;;;;;;22.64;44.57;102230.59;4959397;28;20031;-83
2022/07/07 09:46:12;;;;;;;36.33;34.03;;;;;;;22.64;44.86;102233.34;4958612;28;20031;-85
2022/07/07 09:48:40;;;;;;;36.40;34.40;;;;;;;22.64;44.70;102241.63;4958303;28;20114;-84
2022/07/07 09:51:19;;;;;;;34.63;32.97;;;;;;;22.64;44.93;102244.38;4957822;28;20090;-84
2022/07/07 09:54:03;;;;;;;35.90;34.20;;;;;;;22.62;44.78;102248.53;4958343;28;20023;-84
2022/07/07 09:56:42;;;;;;;34.95;33.25;;;;;;;22.62;44.91;102251.28;4957862;28;20027;-83
2022/07/07 09:59:09;;;;;;;;;;;;;;;22.60;44.52;102253.50;4959083;28;20023;-84
2022/07/07 10:01:37;;;;;;;33.97;32.13;;;;;;;22.60;45.08;102247.97;4961337;28;20268;-84
2022/07/07 10:04:05;;;;;;;37.38;33.83;;;;;;;22.60;44.58;102247.97;4961005;28;20135;-84
2022/07/07 10:06:34;;;;;;;34.13;32.33;;;;;;;22.62;44.84;102246.59;4959004;28;20051;-87
2022/07/07 10:09:11;;;;;;;36.08;34.17;;;;;;;22.63;44.97;102248.25;4963575;28;20051;-86
2022/07/07 10:11:45;;;;;;;34.72;32.90;;;;;;;22.64;44.80;102274.66;4958169;28;20043;-84
2022/07/07 10:14:14;;;;;;;37.13;35.38;;;;;;;22.64;44.58;102284.88;4972927;28;20027;-84
2022/07/07 10:16:41;;;;;;;36.72;34.92;;;;;;;22.64;44.26;102287.63;4957728;28;20027;-81
2022/07/07 10:19:09;;;;;;;35.20;33.50;;;;;;;22.64;44.50;102290.38;4957569;28;20047;-77
2022/07/07 10:21:34;;;;;;;35.22;33.60;;;;;;;22.64;44.50;102296.69;4957323;28;20027;-83
2022/07/07 10:24:00;;;;;;;35.47;33.35;;;;;;;22.66;44.62;102305.50;4955930;29;20038;-86
2022/07/07 10:26:37;;;;;;;36.65;34.75;;;;;;;22.68;44.38;102296.97;4956940;28;20432;-87
2022/07/07 10:29:03;;;;;;;35.75;33.95;;;;;;;22.69;44.40;102295.84;4956934;28;20067;-83
2022/07/07 10:31:30;;;;;;;40.10;38.08;;;;;;;22.70;44.86;102303.00;4957365;28;20043;-85
2022/07/07 10:34:04;;;;;;;36.83;34.83;;;;;;;22.69;45.18;102310.44;4956825;28;20126;-86
2022/07/07 10:36:48;;;;;;;36.60;34.80;;;;;;;22.68;45.01;102306.03;4956790;28;20031;-85
2022/07/07 10:39:14;;;;;;;36.70;34.88;;;;;;;22.66;44.44;102308.25;4957137;28;20524;-86
2022/07/07 10:41:41;;;;;;;36.38;34.63;;;;;;;22.69;44.34;102312.38;4956636;28;20164;-83
2022/07/07 10:44:09;;;;;;;35.92;34.13;;;;;;;22.69;44.97;102309.63;4957374;28;20085;-87
2022/07/07 10:46:36;;;;;;;34.30;32.67;;;;;;;22.69;44.36;102323.38;4971323;28;20031;-87
2022/07/07 10:49:10;;;;;;;35.65;33.75;;;;;;;22.69;44.60;102315.94;4955648;29;20077;-87
2022/07/07 10:51:55;;;;;;;35.25;33.45;;;;;;;22.71;44.98;102320.34;4957569;28;20035;-86
2022/07/07 10:54:36;;;;;;;36.00;34.22;;;;;;;22.71;44.74;102323.94;4956789;28;20067;-85
2022/07/07 10:57:01;;;;;;;35.30;33.63;;;;;;;22.71;44.60;102329.44;4971131;28;20034;-84
2022/07/07 10:59:27;;;;;;;37.67;35.75;;;;;;;22.71;44.45;102321.19;4956533;28;20039;-86
2022/07/07 11:02:02;;;;;;;36.25;34.28;;;;;;;22.71;44.78;102337.69;4955943;28;20031;-84
2022/07/07 11:04:50;;;;;;;35.95;34.25;;;;;;;22.72;44.84;102344.84;4956217;28;20480;-85
2022/07/07 11:07:21;;;;;;;35.90;34.08;;;;;;;22.70;44.33;102341.53;4956225;28;20158;-85
2022/07/07 11:10:00;;;;;;;35.50;33.55;;;;;;;22.72;44.50;102347.59;4971490;28;20031;-85